sensor_id;sensor_type;location;lat;lon;timestamp;P1;durP1;ratioP1;P2;durP2;ratioP2
5295;SDS011;2670;42.720;23.336;2022-11-15T00:01:59;137.10;;;58.87;;
5295;SDS011;2670;42.720;23.336;2022-11-15T00:04:29;135.13;;;57.23;;
5295;SDS011;2670;42.720;23.336;2022-11-15T00:06:56;134.70;;;54.43;;
5295;SDS011;2670;42.720;23.336;2022-11-15T00:09:22;124.87;;;54.70;;
5295;SDS011;2670;42.720;23.336;2022-11-15T00:11:49;123.53;;;52.47;;
5295;SDS011;2670;42.720;23.336;2022-11-15T00:14:17;129.87;;;54.60;;
5295;SDS011;2670;42.720;23.336;2022-11-15T00:16:44;116.27;;;52.37;;
5295;SDS011;2670;42.720;23.336;2022-11-15T00:19:12;125.50;;;53.50;;
5295;SDS011;2670;42.720;23.336;2022-11-15T00:21:39;110.77;;;48.70;;
5295;SDS011;2670;42.720;23.336;2022-11-15T00:24:06;106.20;;;47.40;;
5295;SDS011;2670;42.720;23.336;2022-11-15T00:26:32;121.03;;;49.53;;
5295;SDS011;2670;42.720;23.336;2022-11-15T00:28:59;130.23;;;54.87;;
5295;SDS011;2670;42.720;23.336;2022-11-15T00:31:26;109.00;;;50.20;;
5295;SDS011;2670;42.720;23.336;2022-11-15T00:33:52;120.97;;;52.53;;
5295;SDS011;2670;42.720;23.336;2022-11-15T00:36:20;123.73;;;52.90;;
5295;SDS011;2670;42.720;23.336;2022-11-15T00:38:47;116.13;;;50.47;;
5295;SDS011;2670;42.720;23.336;2022-11-15T00:41:14;114.50;;;48.30;;
5295;SDS011;2670;42.720;23.336;2022-11-15T00:43:40;130.00;;;51.20;;
5295;SDS011;2670;42.720;23.336;2022-11-15T00:46:08;106.33;;;47.40;;
5295;SDS011;2670;42.720;23.336;2022-11-15T00:48:35;107.33;;;49.03;;
5295;SDS011;2670;42.720;23.336;2022-11-15T00:51:02;110.10;;;47.33;;
5295;SDS011;2670;42.720;23.336;2022-11-15T00:53:30;103.90;;;46.07;;
5295;SDS011;2670;42.720;23.336;2022-11-15T00:55:56;116.37;;;47.90;;
5295;SDS011;2670;42.720;23.336;2022-11-15T00:58:23;108.13;;;45.90;;
5295;SDS011;2670;42.720;23.336;2022-11-15T01:00:50;117.93;;;51.37;;
5295;SDS011;2670;42.720;23.336;2022-11-15T01:03:17;104.23;;;45.80;;
5295;SDS011;2670;42.720;23.336;2022-11-15T01:05:43;107.43;;;48.37;;
5295;SDS011;2670;42.720;23.336;2022-11-15T01:08:11;112.00;;;48.90;;
5295;SDS011;2670;42.720;23.336;2022-11-15T01:10:40;109.43;;;46.57;;
5295;SDS011;2670;42.720;23.336;2022-11-15T01:13:07;109.00;;;47.50;;
5295;SDS011;2670;42.720;23.336;2022-11-15T01:15:33;116.73;;;47.47;;
5295;SDS011;2670;42.720;23.336;2022-11-15T01:18:00;104.97;;;44.17;;
5295;SDS011;2670;42.720;23.336;2022-11-15T01:20:27;106.63;;;43.90;;
5295;SDS011;2670;42.720;23.336;2022-11-15T01:22:53;97.70;;;44.60;;
5295;SDS011;2670;42.720;23.336;2022-11-15T01:25:20;108.20;;;46.43;;
5295;SDS011;2670;42.720;23.336;2022-11-15T01:27:48;99.23;;;44.97;;
5295;SDS011;2670;42.720;23.336;2022-11-15T01:30:15;110.17;;;44.53;;
5295;SDS011;2670;42.720;23.336;2022-11-15T01:32:42;117.97;;;43.53;;
5295;SDS011;2670;42.720;23.336;2022-11-15T01:35:08;99.40;;;42.60;;
5295;SDS011;2670;42.720;23.336;2022-11-15T01:37:35;102.93;;;42.63;;
5295;SDS011;2670;42.720;23.336;2022-11-15T01:40:02;105.43;;;45.50;;
5295;SDS011;2670;42.720;23.336;2022-11-15T01:42:29;105.37;;;44.57;;
5295;SDS011;2670;42.720;23.336;2022-11-15T01:44:57;105.90;;;42.33;;
5295;SDS011;2670;42.720;23.336;2022-11-15T01:47:24;101.70;;;43.23;;
5295;SDS011;2670;42.720;23.336;2022-11-15T01:49:55;95.77;;;45.47;;
5295;SDS011;2670;42.720;23.336;2022-11-15T01:52:25;173.23;;;63.03;;
5295;SDS011;2670;42.720;23.336;2022-11-15T01:54:55;146.47;;;56.03;;
5295;SDS011;2670;42.720;23.336;2022-11-15T01:57:27;102.57;;;44.20;;
5295;SDS011;2670;42.720;23.336;2022-11-15T01:59:54;117.50;;;46.97;;
5295;SDS011;2670;42.720;23.336;2022-11-15T02:02:23;120.67;;;51.93;;
5295;SDS011;2670;42.720;23.336;2022-11-15T02:04:50;112.27;;;49.30;;
5295;SDS011;2670;42.720;23.336;2022-11-15T02:07:17;114.77;;;49.73;;
5295;SDS011;2670;42.720;23.336;2022-11-15T02:09:46;113.33;;;48.70;;
5295;SDS011;2670;42.720;23.336;2022-11-15T02:12:14;108.87;;;44.60;;
5295;SDS011;2670;42.720;23.336;2022-11-15T02:14:44;103.63;;;46.07;;
5295;SDS011;2670;42.720;23.336;2022-11-15T02:17:19;88.83;;;43.80;;
5295;SDS011;2670;42.720;23.336;2022-11-15T02:20:05;108.50;;;42.73;;
5295;SDS011;2670;42.720;23.336;2022-11-15T02:22:51;92.80;;;42.53;;
5295;SDS011;2670;42.720;23.336;2022-11-15T02:25:37;106.83;;;47.63;;
5295;SDS011;2670;42.720;23.336;2022-11-15T02:31:02;104.20;;;43.70;;
5295;SDS011;2670;42.720;23.336;2022-11-15T02:33:35;91.50;;;42.20;;
5295;SDS011;2670;42.720;23.336;2022-11-15T02:36:09;101.57;;;43.27;;
5295;SDS011;2670;42.720;23.336;2022-11-15T02:38:43;94.63;;;42.20;;
5295;SDS011;2670;42.720;23.336;2022-11-15T02:41:19;92.47;;;41.10;;
5295;SDS011;2670;42.720;23.336;2022-11-15T02:43:51;86.70;;;35.93;;
5295;SDS011;2670;42.720;23.336;2022-11-15T02:46:24;84.03;;;38.27;;
5295;SDS011;2670;42.720;23.336;2022-11-15T02:49:10;81.30;;;37.47;;
5295;SDS011;2670;42.720;23.336;2022-11-15T02:51:38;89.77;;;38.23;;
5295;SDS011;2670;42.720;23.336;2022-11-15T02:54:05;91.27;;;37.87;;
5295;SDS011;2670;42.720;23.336;2022-11-15T02:56:32;87.43;;;35.57;;
5295;SDS011;2670;42.720;23.336;2022-11-15T02:59:07;75.77;;;33.73;;
5295;SDS011;2670;42.720;23.336;2022-11-15T03:01:50;79.63;;;34.50;;
5295;SDS011;2670;42.720;23.336;2022-11-15T03:04:29;78.17;;;33.53;;
5295;SDS011;2670;42.720;23.336;2022-11-15T03:07:10;78.73;;;34.93;;
5295;SDS011;2670;42.720;23.336;2022-11-15T03:09:44;99.57;;;38.43;;
5295;SDS011;2670;42.720;23.336;2022-11-15T03:12:21;91.30;;;37.70;;
5295;SDS011;2670;42.720;23.336;2022-11-15T03:14:53;105.27;;;38.07;;
5295;SDS011;2670;42.720;23.336;2022-11-15T03:17:27;94.97;;;37.10;;
5295;SDS011;2670;42.720;23.336;2022-11-15T03:19:57;109.37;;;39.07;;
5295;SDS011;2670;42.720;23.336;2022-11-15T03:22:26;100.13;;;37.53;;
5295;SDS011;2670;42.720;23.336;2022-11-15T03:24:57;110.67;;;38.47;;
5295;SDS011;2670;42.720;23.336;2022-11-15T03:27:27;105.30;;;37.23;;
5295;SDS011;2670;42.720;23.336;2022-11-15T03:29:59;118.47;;;40.73;;
5295;SDS011;2670;42.720;23.336;2022-11-15T03:32:30;107.97;;;40.70;;
5295;SDS011;2670;42.720;23.336;2022-11-15T03:35:00;107.17;;;38.50;;
5295;SDS011;2670;42.720;23.336;2022-11-15T03:37:33;98.37;;;36.23;;
5295;SDS011;2670;42.720;23.336;2022-11-15T03:40:03;111.77;;;37.10;;
5295;SDS011;2670;42.720;23.336;2022-11-15T03:42:32;101.87;;;38.00;;
5295;SDS011;2670;42.720;23.336;2022-11-15T03:45:06;103.17;;;39.60;;
5295;SDS011;2670;42.720;23.336;2022-11-15T03:47:41;101.90;;;37.17;;
5295;SDS011;2670;42.720;23.336;2022-11-15T03:50:12;118.07;;;35.10;;
5295;SDS011;2670;42.720;23.336;2022-11-15T03:52:41;109.37;;;36.20;;
5295;SDS011;2670;42.720;23.336;2022-11-15T03:55:11;107.10;;;38.20;;
5295;SDS011;2670;42.720;23.336;2022-11-15T03:57:41;113.23;;;39.00;;
5295;SDS011;2670;42.720;23.336;2022-11-15T04:00:08;95.47;;;34.47;;
5295;SDS011;2670;42.720;23.336;2022-11-15T04:02:36;108.17;;;34.50;;
5295;SDS011;2670;42.720;23.336;2022-11-15T04:05:05;88.27;;;34.13;;
5295;SDS011;2670;42.720;23.336;2022-11-15T04:07:32;93.60;;;33.87;;
5295;SDS011;2670;42.720;23.336;2022-11-15T04:09:58;127.50;;;33.60;;
5295;SDS011;2670;42.720;23.336;2022-11-15T04:12:31;111.33;;;34.33;;
5295;SDS011;2670;42.720;23.336;2022-11-15T04:15:00;119.40;;;32.83;;
5295;SDS011;2670;42.720;23.336;2022-11-15T04:17:35;106.57;;;35.17;;
5295;SDS011;2670;42.720;23.336;2022-11-15T04:20:06;112.47;;;33.27;;
5295;SDS011;2670;42.720;23.336;2022-11-15T04:22:52;94.00;;;33.50;;
5295;SDS011;2670;42.720;23.336;2022-11-15T04:25:37;97.57;;;34.33;;
5295;SDS011;2670;42.720;23.336;2022-11-15T04:28:04;87.57;;;37.00;;
5295;SDS011;2670;42.720;23.336;2022-11-15T04:30:31;93.03;;;31.90;;
5295;SDS011;2670;42.720;23.336;2022-11-15T04:32:57;82.77;;;31.27;;
5295;SDS011;2670;42.720;23.336;2022-11-15T04:35:25;86.40;;;33.03;;
5295;SDS011;2670;42.720;23.336;2022-11-15T04:37:52;110.07;;;36.13;;
5295;SDS011;2670;42.720;23.336;2022-11-15T04:40:18;93.57;;;34.10;;
5295;SDS011;2670;42.720;23.336;2022-11-15T04:42:45;110.53;;;40.10;;
5295;SDS011;2670;42.720;23.336;2022-11-15T04:45:11;84.80;;;33.87;;
5295;SDS011;2670;42.720;23.336;2022-11-15T04:47:38;107.60;;;38.43;;
5295;SDS011;2670;42.720;23.336;2022-11-15T04:50:05;84.37;;;33.37;;
5295;SDS011;2670;42.720;23.336;2022-11-15T04:52:34;108.07;;;35.50;;
5295;SDS011;2670;42.720;23.336;2022-11-15T04:55:00;83.10;;;33.70;;
5295;SDS011;2670;42.720;23.336;2022-11-15T04:57:27;107.60;;;35.67;;
5295;SDS011;2670;42.720;23.336;2022-11-15T04:59:54;84.57;;;35.60;;
5295;SDS011;2670;42.720;23.336;2022-11-15T05:02:20;113.23;;;40.97;;
5295;SDS011;2670;42.720;23.336;2022-11-15T05:04:47;115.90;;;41.10;;
5295;SDS011;2670;42.720;23.336;2022-11-15T05:07:13;101.07;;;39.50;;
5295;SDS011;2670;42.720;23.336;2022-11-15T05:09:41;89.53;;;35.70;;
5295;SDS011;2670;42.720;23.336;2022-11-15T05:12:07;83.63;;;34.40;;
5295;SDS011;2670;42.720;23.336;2022-11-15T05:14:34;94.87;;;39.07;;
5295;SDS011;2670;42.720;23.336;2022-11-15T05:17:01;94.90;;;38.43;;
5295;SDS011;2670;42.720;23.336;2022-11-15T05:19:27;99.70;;;37.73;;
5295;SDS011;2670;42.720;23.336;2022-11-15T05:21:54;94.53;;;35.30;;
5295;SDS011;2670;42.720;23.336;2022-11-15T05:24:21;87.80;;;35.57;;
5295;SDS011;2670;42.720;23.336;2022-11-15T05:26:49;96.07;;;33.57;;
5295;SDS011;2670;42.720;23.336;2022-11-15T05:29:15;96.43;;;36.13;;
5295;SDS011;2670;42.720;23.336;2022-11-15T05:31:42;87.23;;;33.57;;
5295;SDS011;2670;42.720;23.336;2022-11-15T05:34:09;96.27;;;37.33;;
5295;SDS011;2670;42.720;23.336;2022-11-15T05:36:36;119.17;;;40.60;;
5295;SDS011;2670;42.720;23.336;2022-11-15T05:39:05;113.00;;;38.70;;
5295;SDS011;2670;42.720;23.336;2022-11-15T05:41:33;105.67;;;37.67;;
5295;SDS011;2670;42.720;23.336;2022-11-15T05:44:04;114.03;;;39.27;;
5295;SDS011;2670;42.720;23.336;2022-11-15T05:46:34;131.33;;;40.90;;
5295;SDS011;2670;42.720;23.336;2022-11-15T05:49:03;109.90;;;39.50;;
5295;SDS011;2670;42.720;23.336;2022-11-15T05:51:33;112.13;;;39.50;;
5295;SDS011;2670;42.720;23.336;2022-11-15T05:54:00;97.27;;;37.33;;
5295;SDS011;2670;42.720;23.336;2022-11-15T05:56:28;103.93;;;38.30;;
5295;SDS011;2670;42.720;23.336;2022-11-15T05:58:55;114.37;;;38.63;;
5295;SDS011;2670;42.720;23.336;2022-11-15T06:01:25;96.63;;;41.13;;
5295;SDS011;2670;42.720;23.336;2022-11-15T06:03:53;130.50;;;44.67;;
5295;SDS011;2670;42.720;23.336;2022-11-15T06:06:19;121.07;;;43.20;;
5295;SDS011;2670;42.720;23.336;2022-11-15T06:08:46;113.13;;;41.60;;
5295;SDS011;2670;42.720;23.336;2022-11-15T06:11:13;125.93;;;44.53;;
5295;SDS011;2670;42.720;23.336;2022-11-15T06:13:40;105.37;;;41.10;;
5295;SDS011;2670;42.720;23.336;2022-11-15T06:16:07;129.70;;;42.90;;
5295;SDS011;2670;42.720;23.336;2022-11-15T06:18:35;118.03;;;42.27;;
5295;SDS011;2670;42.720;23.336;2022-11-15T06:21:03;119.00;;;44.47;;
5295;SDS011;2670;42.720;23.336;2022-11-15T06:23:31;114.77;;;43.37;;
5295;SDS011;2670;42.720;23.336;2022-11-15T06:25:59;127.43;;;44.40;;
5295;SDS011;2670;42.720;23.336;2022-11-15T06:28:28;131.83;;;47.40;;
5295;SDS011;2670;42.720;23.336;2022-11-15T06:30:55;146.03;;;66.00;;
5295;SDS011;2670;42.720;23.336;2022-11-15T06:33:22;157.40;;;60.60;;
5295;SDS011;2670;42.720;23.336;2022-11-15T06:35:50;175.37;;;55.87;;
5295;SDS011;2670;42.720;23.336;2022-11-15T06:38:17;177.70;;;66.97;;
5295;SDS011;2670;42.720;23.336;2022-11-15T06:40:43;170.10;;;59.23;;
5295;SDS011;2670;42.720;23.336;2022-11-15T06:43:10;148.47;;;59.90;;
5295;SDS011;2670;42.720;23.336;2022-11-15T06:45:37;172.60;;;54.83;;
5295;SDS011;2670;42.720;23.336;2022-11-15T06:48:04;145.27;;;56.60;;
5295;SDS011;2670;42.720;23.336;2022-11-15T06:50:31;147.53;;;57.80;;
5295;SDS011;2670;42.720;23.336;2022-11-15T06:53:03;146.00;;;54.23;;
5295;SDS011;2670;42.720;23.336;2022-11-15T06:55:30;157.13;;;59.67;;
5295;SDS011;2670;42.720;23.336;2022-11-15T06:57:56;342.17;;;141.73;;
5295;SDS011;2670;42.720;23.336;2022-11-15T07:00:23;135.87;;;59.27;;
5295;SDS011;2670;42.720;23.336;2022-11-15T07:02:50;145.67;;;52.43;;
5295;SDS011;2670;42.720;23.336;2022-11-15T07:05:17;166.23;;;59.30;;
5295;SDS011;2670;42.720;23.336;2022-11-15T07:07:50;141.37;;;54.13;;
5295;SDS011;2670;42.720;23.336;2022-11-15T07:10:18;148.60;;;50.40;;
5295;SDS011;2670;42.720;23.336;2022-11-15T07:12:46;140.33;;;55.70;;
5295;SDS011;2670;42.720;23.336;2022-11-15T07:15:13;149.83;;;51.53;;
5295;SDS011;2670;42.720;23.336;2022-11-15T07:17:40;97.60;;;40.20;;
5295;SDS011;2670;42.720;23.336;2022-11-15T07:20:07;112.00;;;41.10;;
5295;SDS011;2670;42.720;23.336;2022-11-15T07:22:34;97.07;;;33.43;;
5295;SDS011;2670;42.720;23.336;2022-11-15T07:25:01;81.43;;;29.83;;
5295;SDS011;2670;42.720;23.336;2022-11-15T07:27:29;92.23;;;31.47;;
5295;SDS011;2670;42.720;23.336;2022-11-15T07:29:56;111.40;;;35.50;;
5295;SDS011;2670;42.720;23.336;2022-11-15T07:32:24;92.87;;;30.43;;
5295;SDS011;2670;42.720;23.336;2022-11-15T07:34:51;103.53;;;32.70;;
5295;SDS011;2670;42.720;23.336;2022-11-15T07:37:18;75.70;;;29.90;;
5295;SDS011;2670;42.720;23.336;2022-11-15T07:39:45;85.47;;;32.53;;
5295;SDS011;2670;42.720;23.336;2022-11-15T07:42:12;90.10;;;35.30;;
5295;SDS011;2670;42.720;23.336;2022-11-15T07:44:58;75.57;;;29.93;;
5295;SDS011;2670;42.720;23.336;2022-11-15T07:47:24;91.20;;;38.77;;
5295;SDS011;2670;42.720;23.336;2022-11-15T07:49:51;64.37;;;28.70;;
5295;SDS011;2670;42.720;23.336;2022-11-15T07:52:18;74.17;;;29.90;;
5295;SDS011;2670;42.720;23.336;2022-11-15T07:54:45;77.70;;;27.60;;
5295;SDS011;2670;42.720;23.336;2022-11-15T07:57:11;71.57;;;29.40;;
5295;SDS011;2670;42.720;23.336;2022-11-15T07:59:38;74.43;;;31.43;;
5295;SDS011;2670;42.720;23.336;2022-11-15T08:02:08;74.37;;;30.90;;
5295;SDS011;2670;42.720;23.336;2022-11-15T08:04:35;80.83;;;28.80;;
5295;SDS011;2670;42.720;23.336;2022-11-15T08:07:01;71.67;;;31.73;;
5295;SDS011;2670;42.720;23.336;2022-11-15T08:09:28;76.23;;;31.00;;
5295;SDS011;2670;42.720;23.336;2022-11-15T08:11:55;57.10;;;26.73;;
5295;SDS011;2670;42.720;23.336;2022-11-15T08:14:21;68.30;;;28.37;;
5295;SDS011;2670;42.720;23.336;2022-11-15T08:16:48;70.57;;;25.90;;
5295;SDS011;2670;42.720;23.336;2022-11-15T08:19:16;77.80;;;31.50;;
5295;SDS011;2670;42.720;23.336;2022-11-15T08:21:43;78.93;;;30.83;;
5295;SDS011;2670;42.720;23.336;2022-11-15T08:24:09;93.07;;;32.80;;
5295;SDS011;2670;42.720;23.336;2022-11-15T08:26:36;72.80;;;31.23;;
5295;SDS011;2670;42.720;23.336;2022-11-15T08:29:04;94.20;;;32.13;;
5295;SDS011;2670;42.720;23.336;2022-11-15T08:31:32;76.57;;;30.33;;
5295;SDS011;2670;42.720;23.336;2022-11-15T08:33:59;77.30;;;31.70;;
5295;SDS011;2670;42.720;23.336;2022-11-15T08:36:28;75.80;;;30.80;;
5295;SDS011;2670;42.720;23.336;2022-11-15T08:38:55;59.13;;;26.80;;
5295;SDS011;2670;42.720;23.336;2022-11-15T08:41:23;60.20;;;26.27;;
5295;SDS011;2670;42.720;23.336;2022-11-15T08:43:52;66.57;;;26.40;;
5295;SDS011;2670;42.720;23.336;2022-11-15T08:46:19;61.07;;;28.77;;
5295;SDS011;2670;42.720;23.336;2022-11-15T08:48:46;78.77;;;30.57;;
5295;SDS011;2670;42.720;23.336;2022-11-15T08:51:12;71.73;;;30.60;;
5295;SDS011;2670;42.720;23.336;2022-11-15T08:53:41;75.23;;;31.20;;
5295;SDS011;2670;42.720;23.336;2022-11-15T08:56:08;84.10;;;31.40;;
5295;SDS011;2670;42.720;23.336;2022-11-15T08:58:35;73.67;;;30.30;;
5295;SDS011;2670;42.720;23.336;2022-11-15T09:01:02;76.53;;;32.10;;
5295;SDS011;2670;42.720;23.336;2022-11-15T09:03:30;68.70;;;29.90;;
5295;SDS011;2670;42.720;23.336;2022-11-15T09:05:57;69.67;;;28.40;;
5295;SDS011;2670;42.720;23.336;2022-11-15T09:08:25;73.23;;;31.80;;
5295;SDS011;2670;42.720;23.336;2022-11-15T09:10:57;62.57;;;28.80;;
5295;SDS011;2670;42.720;23.336;2022-11-15T09:13:24;71.13;;;29.80;;
5295;SDS011;2670;42.720;23.336;2022-11-15T09:15:50;65.17;;;29.77;;
5295;SDS011;2670;42.720;23.336;2022-11-15T09:18:17;61.80;;;29.43;;
5295;SDS011;2670;42.720;23.336;2022-11-15T09:20:45;59.70;;;28.20;;
5295;SDS011;2670;42.720;23.336;2022-11-15T09:23:12;62.87;;;29.30;;
5295;SDS011;2670;42.720;23.336;2022-11-15T09:25:38;59.43;;;25.27;;
5295;SDS011;2670;42.720;23.336;2022-11-15T09:28:07;62.80;;;25.77;;
5295;SDS011;2670;42.720;23.336;2022-11-15T09:30:34;64.40;;;26.20;;
5295;SDS011;2670;42.720;23.336;2022-11-15T09:33:05;60.07;;;26.87;;
5295;SDS011;2670;42.720;23.336;2022-11-15T09:35:33;72.03;;;28.13;;
5295;SDS011;2670;42.720;23.336;2022-11-15T09:38:00;58.23;;;26.37;;
5295;SDS011;2670;42.720;23.336;2022-11-15T09:40:27;67.47;;;29.90;;
5295;SDS011;2670;42.720;23.336;2022-11-15T09:43:00;61.53;;;28.70;;
5295;SDS011;2670;42.720;23.336;2022-11-15T09:45:45;69.50;;;29.70;;
5295;SDS011;2670;42.720;23.336;2022-11-15T09:51:18;59.93;;;28.17;;
5295;SDS011;2670;42.720;23.336;2022-11-15T09:53:52;68.93;;;26.60;;
5295;SDS011;2670;42.720;23.336;2022-11-15T09:56:36;75.60;;;29.83;;
5295;SDS011;2670;42.720;23.336;2022-11-15T09:59:13;81.27;;;34.87;;
5295;SDS011;2670;42.720;23.336;2022-11-15T10:02:01;96.27;;;36.87;;
5295;SDS011;2670;42.720;23.336;2022-11-15T10:04:36;81.60;;;33.73;;
5295;SDS011;2670;42.720;23.336;2022-11-15T10:07:06;78.43;;;34.27;;
5295;SDS011;2670;42.720;23.336;2022-11-15T10:09:42;87.73;;;35.00;;
5295;SDS011;2670;42.720;23.336;2022-11-15T10:12:15;121.10;;;43.60;;
5295;SDS011;2670;42.720;23.336;2022-11-15T10:14:43;193.47;;;79.27;;
5295;SDS011;2670;42.720;23.336;2022-11-15T10:20:12;102.23;;;39.97;;
5295;SDS011;2670;42.720;23.336;2022-11-15T10:22:45;96.50;;;39.93;;
5295;SDS011;2670;42.720;23.336;2022-11-15T10:25:21;107.07;;;42.20;;
5295;SDS011;2670;42.720;23.336;2022-11-15T10:27:53;109.63;;;42.90;;
5295;SDS011;2670;42.720;23.336;2022-11-15T10:30:22;106.67;;;42.50;;
5295;SDS011;2670;42.720;23.336;2022-11-15T10:32:51;102.97;;;43.53;;
5295;SDS011;2670;42.720;23.336;2022-11-15T10:35:19;104.67;;;41.70;;
5295;SDS011;2670;42.720;23.336;2022-11-15T10:37:48;110.20;;;45.70;;
5295;SDS011;2670;42.720;23.336;2022-11-15T10:40:16;110.97;;;43.70;;
5295;SDS011;2670;42.720;23.336;2022-11-15T10:42:45;93.20;;;42.00;;
5295;SDS011;2670;42.720;23.336;2022-11-15T10:45:28;85.80;;;38.87;;
5295;SDS011;2670;42.720;23.336;2022-11-15T10:48:18;97.00;;;41.00;;
5295;SDS011;2670;42.720;23.336;2022-11-15T10:50:47;114.07;;;44.87;;
5295;SDS011;2670;42.720;23.336;2022-11-15T10:53:18;99.93;;;43.97;;
5295;SDS011;2670;42.720;23.336;2022-11-15T10:55:51;109.00;;;44.40;;
5295;SDS011;2670;42.720;23.336;2022-11-15T10:58:21;106.20;;;42.60;;
5295;SDS011;2670;42.720;23.336;2022-11-15T11:00:55;88.00;;;38.10;;
5295;SDS011;2670;42.720;23.336;2022-11-15T11:03:33;92.90;;;39.07;;
5295;SDS011;2670;42.720;23.336;2022-11-15T11:06:03;80.27;;;34.80;;
5295;SDS011;2670;42.720;23.336;2022-11-15T11:08:32;83.33;;;35.30;;
5295;SDS011;2670;42.720;23.336;2022-11-15T11:10:59;79.40;;;36.77;;
5295;SDS011;2670;42.720;23.336;2022-11-15T11:13:28;86.13;;;39.50;;
5295;SDS011;2670;42.720;23.336;2022-11-15T11:15:58;100.40;;;43.33;;
5295;SDS011;2670;42.720;23.336;2022-11-15T11:18:49;110.77;;;44.00;;
5295;SDS011;2670;42.720;23.336;2022-11-15T11:21:25;95.60;;;41.40;;
5295;SDS011;2670;42.720;23.336;2022-11-15T11:23:59;101.40;;;42.87;;
5295;SDS011;2670;42.720;23.336;2022-11-15T11:26:35;101.93;;;42.90;;
5295;SDS011;2670;42.720;23.336;2022-11-15T11:29:20;94.73;;;43.13;;
5295;SDS011;2670;42.720;23.336;2022-11-15T11:32:00;97.53;;;37.77;;
5295;SDS011;2670;42.720;23.336;2022-11-15T11:34:37;104.80;;;43.30;;
5295;SDS011;2670;42.720;23.336;2022-11-15T11:37:17;92.57;;;42.07;;
5295;SDS011;2670;42.720;23.336;2022-11-15T11:39:55;103.57;;;44.27;;
5295;SDS011;2670;42.720;23.336;2022-11-15T11:42:39;89.17;;;42.93;;
5295;SDS011;2670;42.720;23.336;2022-11-15T11:45:15;97.93;;;44.00;;
5295;SDS011;2670;42.720;23.336;2022-11-15T11:47:50;92.20;;;41.07;;
5295;SDS011;2670;42.720;23.336;2022-11-15T11:50:26;105.57;;;42.80;;
5295;SDS011;2670;42.720;23.336;2022-11-15T11:52:56;96.60;;;41.87;;
5295;SDS011;2670;42.720;23.336;2022-11-15T11:55:25;91.77;;;42.10;;
5295;SDS011;2670;42.720;23.336;2022-11-15T11:57:58;104.47;;;43.40;;
5295;SDS011;2670;42.720;23.336;2022-11-15T12:00:31;100.33;;;43.00;;
5295;SDS011;2670;42.720;23.336;2022-11-15T12:03:05;95.13;;;44.37;;
5295;SDS011;2670;42.720;23.336;2022-11-15T12:05:39;102.63;;;43.33;;
5295;SDS011;2670;42.720;23.336;2022-11-15T12:08:15;95.53;;;43.67;;
5295;SDS011;2670;42.720;23.336;2022-11-15T12:10:53;102.17;;;45.37;;
5295;SDS011;2670;42.720;23.336;2022-11-15T12:13:26;100.60;;;46.50;;
5295;SDS011;2670;42.720;23.336;2022-11-15T12:16:00;107.40;;;47.17;;
5295;SDS011;2670;42.720;23.336;2022-11-15T12:18:32;101.93;;;46.97;;
5295;SDS011;2670;42.720;23.336;2022-11-15T12:21:01;117.50;;;52.00;;
5295;SDS011;2670;42.720;23.336;2022-11-15T12:23:37;118.13;;;49.20;;
5295;SDS011;2670;42.720;23.336;2022-11-15T12:26:10;101.03;;;48.17;;
5295;SDS011;2670;42.720;23.336;2022-11-15T12:28:41;100.63;;;45.77;;
5295;SDS011;2670;42.720;23.336;2022-11-15T12:31:12;111.37;;;49.50;;
5295;SDS011;2670;42.720;23.336;2022-11-15T12:33:43;93.37;;;44.80;;
5295;SDS011;2670;42.720;23.336;2022-11-15T12:39:04;83.00;;;41.67;;
5295;SDS011;2670;42.720;23.336;2022-11-15T12:41:32;90.23;;;41.30;;
5295;SDS011;2670;42.720;23.336;2022-11-15T12:44:00;87.00;;;41.97;;
5295;SDS011;2670;42.720;23.336;2022-11-15T12:49:42;89.73;;;48.10;;
5295;SDS011;2670;42.720;23.336;2022-11-15T12:52:14;79.77;;;39.87;;
5295;SDS011;2670;42.720;23.336;2022-11-15T12:55:00;86.93;;;42.57;;
5295;SDS011;2670;42.720;23.336;2022-11-15T13:06:03;81.90;;;39.80;;
5295;SDS011;2670;42.720;23.336;2022-11-15T13:08:36;92.57;;;42.90;;
5295;SDS011;2670;42.720;23.336;2022-11-15T13:17:16;88.30;;;39.40;;
5295;SDS011;2670;42.720;23.336;2022-11-15T13:19:52;95.70;;;42.40;;
5295;SDS011;2670;42.720;23.336;2022-11-15T13:22:24;84.70;;;39.47;;
5295;SDS011;2670;42.720;23.336;2022-11-15T13:25:15;85.83;;;40.60;;
5295;SDS011;2670;42.720;23.336;2022-11-15T13:27:45;85.90;;;38.70;;
5295;SDS011;2670;42.720;23.336;2022-11-15T13:30:16;128.53;;;59.63;;
5295;SDS011;2670;42.720;23.336;2022-11-15T13:32:46;93.93;;;44.53;;
5295;SDS011;2670;42.720;23.336;2022-11-15T13:35:18;94.77;;;42.87;;
5295;SDS011;2670;42.720;23.336;2022-11-15T13:37:47;87.57;;;39.77;;
5295;SDS011;2670;42.720;23.336;2022-11-15T13:40:20;88.77;;;40.50;;
5295;SDS011;2670;42.720;23.336;2022-11-15T13:42:52;89.20;;;41.60;;
5295;SDS011;2670;42.720;23.336;2022-11-15T13:45:19;85.67;;;41.00;;
5295;SDS011;2670;42.720;23.336;2022-11-15T13:47:50;90.57;;;41.40;;
5295;SDS011;2670;42.720;23.336;2022-11-15T13:50:18;98.10;;;43.87;;
5295;SDS011;2670;42.720;23.336;2022-11-15T13:52:48;89.47;;;44.27;;
5295;SDS011;2670;42.720;23.336;2022-11-15T13:55:16;109.43;;;54.43;;
5295;SDS011;2670;42.720;23.336;2022-11-15T13:57:47;90.00;;;45.67;;
5295;SDS011;2670;42.720;23.336;2022-11-15T14:00:30;106.37;;;52.40;;
5295;SDS011;2670;42.720;23.336;2022-11-15T14:03:08;106.87;;;49.03;;
5295;SDS011;2670;42.720;23.336;2022-11-15T14:05:44;89.23;;;40.73;;
5295;SDS011;2670;42.720;23.336;2022-11-15T14:08:22;73.50;;;39.47;;
5295;SDS011;2670;42.720;23.336;2022-11-15T14:14:02;77.10;;;37.27;;
5295;SDS011;2670;42.720;23.336;2022-11-15T14:16:38;67.33;;;36.33;;
5295;SDS011;2670;42.720;23.336;2022-11-15T14:19:06;92.30;;;40.83;;
5295;SDS011;2670;42.720;23.336;2022-11-15T14:21:37;74.47;;;37.23;;
5295;SDS011;2670;42.720;23.336;2022-11-15T14:24:23;68.93;;;34.23;;
5295;SDS011;2670;42.720;23.336;2022-11-15T14:26:56;71.20;;;36.43;;
5295;SDS011;2670;42.720;23.336;2022-11-15T14:29:25;75.13;;;36.60;;
5295;SDS011;2670;42.720;23.336;2022-11-15T14:31:52;78.37;;;35.10;;
5295;SDS011;2670;42.720;23.336;2022-11-15T14:34:20;71.23;;;35.40;;
5295;SDS011;2670;42.720;23.336;2022-11-15T14:36:47;75.40;;;34.90;;
5295;SDS011;2670;42.720;23.336;2022-11-15T14:39:14;80.97;;;38.40;;
5295;SDS011;2670;42.720;23.336;2022-11-15T14:41:40;84.00;;;38.23;;
5295;SDS011;2670;42.720;23.336;2022-11-15T14:44:09;97.33;;;41.73;;
5295;SDS011;2670;42.720;23.336;2022-11-15T14:46:38;92.50;;;42.40;;
5295;SDS011;2670;42.720;23.336;2022-11-15T14:49:05;84.57;;;39.37;;
5295;SDS011;2670;42.720;23.336;2022-11-15T14:51:31;82.53;;;39.50;;
5295;SDS011;2670;42.720;23.336;2022-11-15T14:53:59;75.63;;;36.90;;
5295;SDS011;2670;42.720;23.336;2022-11-15T14:56:25;79.23;;;35.23;;
5295;SDS011;2670;42.720;23.336;2022-11-15T14:58:52;85.20;;;37.37;;
5295;SDS011;2670;42.720;23.336;2022-11-15T15:01:20;73.10;;;34.43;;
5295;SDS011;2670;42.720;23.336;2022-11-15T15:03:51;79.40;;;36.70;;
5295;SDS011;2670;42.720;23.336;2022-11-15T15:06:20;86.07;;;35.47;;
5295;SDS011;2670;42.720;23.336;2022-11-15T15:08:47;81.53;;;38.00;;
5295;SDS011;2670;42.720;23.336;2022-11-15T15:11:16;86.37;;;41.20;;
5295;SDS011;2670;42.720;23.336;2022-11-15T15:13:46;90.40;;;42.63;;
5295;SDS011;2670;42.720;23.336;2022-11-15T15:16:13;91.70;;;41.97;;
5295;SDS011;2670;42.720;23.336;2022-11-15T15:18:40;87.33;;;43.23;;